sensor_id;sensor_type;location;lat;lon;timestamp;P1;durP1;ratioP1;P2;durP2;ratioP2
21251;SDS011;10784;50.578;17.878;2024-02-21T18:55:29;17.60;;;8.50;;
21251;SDS011;10784;50.578;17.878;2024-02-21T18:58:02;19.42;;;8.65;;
21251;SDS011;10784;50.578;17.878;2024-02-21T19:00:35;24.95;;;8.68;;
21251;SDS011;10784;50.578;17.878;2024-02-21T19:03:11;19.83;;;8.93;;
21251;SDS011;10784;50.578;17.878;2024-02-21T19:05:44;19.80;;;8.02;;
21251;SDS011;10784;50.578;17.878;2024-02-21T19:08:17;22.20;;;9.40;;
21251;SDS011;10784;50.578;17.878;2024-02-21T19:10:50;21.10;;;6.78;;
21251;SDS011;10784;50.578;17.878;2024-02-21T19:13:24;17.08;;;7.28;;
21251;SDS011;10784;50.578;17.878;2024-02-21T19:15:57;14.30;;;6.43;;
21251;SDS011;10784;50.578;17.878;2024-02-21T19:18:30;20.27;;;6.07;;
21251;SDS011;10784;50.578;17.878;2024-02-21T19:21:03;21.55;;;7.50;;
21251;SDS011;10784;50.578;17.878;2024-02-21T19:23:37;21.00;;;7.55;;
21251;SDS011;10784;50.578;17.878;2024-02-21T19:26:10;20.63;;;9.30;;
21251;SDS011;10784;50.578;17.878;2024-02-21T19:28:43;21.45;;;9.85;;
21251;SDS011;10784;50.578;17.878;2024-02-21T19:31:17;20.40;;;8.38;;
21251;SDS011;10784;50.578;17.878;2024-02-21T19:33:51;22.80;;;9.52;;
21251;SDS011;10784;50.578;17.878;2024-02-21T19:36:23;20.55;;;7.30;;
21251;SDS011;10784;50.578;17.878;2024-02-21T19:38:58;23.77;;;7.03;;
21251;SDS011;10784;50.578;17.878;2024-02-21T19:41:31;19.50;;;7.28;;
21251;SDS011;10784;50.578;17.878;2024-02-21T19:44:04;13.23;;;6.57;;
21251;SDS011;10784;50.578;17.878;2024-02-21T19:46:38;23.17;;;6.85;;
21251;SDS011;10784;50.578;17.878;2024-02-21T19:49:11;15.93;;;6.63;;
21251;SDS011;10784;50.578;17.878;2024-02-21T19:51:45;18.70;;;6.57;;
21251;SDS011;10784;50.578;17.878;2024-02-21T19:54:18;16.02;;;6.05;;
21251;SDS011;10784;50.578;17.878;2024-02-21T19:56:56;17.30;;;6.90;;
21251;SDS011;10784;50.578;17.878;2024-02-21T19:59:29;13.55;;;6.32;;
21251;SDS011;10784;50.578;17.878;2024-02-21T20:02:02;18.02;;;7.18;;
21251;SDS011;10784;50.578;17.878;2024-02-21T20:04:36;16.60;;;6.72;;
21251;SDS011;10784;50.578;17.878;2024-02-21T20:07:09;15.40;;;7.20;;
21251;SDS011;10784;50.578;17.878;2024-02-21T20:09:42;15.63;;;6.55;;
21251;SDS011;10784;50.578;17.878;2024-02-21T20:12:15;18.27;;;7.45;;
21251;SDS011;10784;50.578;17.878;2024-02-21T20:14:50;17.20;;;6.13;;
21251;SDS011;10784;50.578;17.878;2024-02-21T20:17:22;18.08;;;6.50;;
21251;SDS011;10784;50.578;17.878;2024-02-21T20:19:55;13.85;;;6.13;;
21251;SDS011;10784;50.578;17.878;2024-02-21T20:22:30;17.15;;;7.13;;
21251;SDS011;10784;50.578;17.878;2024-02-21T20:25:03;16.17;;;6.13;;
21251;SDS011;10784;50.578;17.878;2024-02-21T20:27:36;14.40;;;7.05;;
21251;SDS011;10784;50.578;17.878;2024-02-21T20:30:10;15.18;;;6.57;;
21251;SDS011;10784;50.578;17.878;2024-02-21T20:32:42;14.20;;;5.90;;
21251;SDS011;10784;50.578;17.878;2024-02-21T20:35:16;19.70;;;6.93;;
21251;SDS011;10784;50.578;17.878;2024-02-21T20:37:49;13.73;;;5.25;;
21251;SDS011;10784;50.578;17.878;2024-02-21T20:40:22;15.25;;;5.40;;
21251;SDS011;10784;50.578;17.878;2024-02-21T20:42:55;10.15;;;4.75;;
21251;SDS011;10784;50.578;17.878;2024-02-21T20:45:28;14.73;;;5.85;;
21251;SDS011;10784;50.578;17.878;2024-02-21T20:48:01;14.95;;;5.63;;
21251;SDS011;10784;50.578;17.878;2024-02-21T20:50:35;8.75;;;4.60;;
21251;SDS011;10784;50.578;17.878;2024-02-21T20:53:08;15.00;;;5.50;;
21251;SDS011;10784;50.578;17.878;2024-02-21T20:55:41;14.15;;;5.60;;
21251;SDS011;10784;50.578;17.878;2024-02-21T20:58:15;13.93;;;5.85;;
21251;SDS011;10784;50.578;17.878;2024-02-21T21:00:48;13.48;;;5.60;;
21251;SDS011;10784;50.578;17.878;2024-02-21T21:03:21;11.45;;;6.13;;
21251;SDS011;10784;50.578;17.878;2024-02-21T21:05:54;13.70;;;6.53;;
21251;SDS011;10784;50.578;17.878;2024-02-21T21:08:27;15.38;;;5.65;;
21251;SDS011;10784;50.578;17.878;2024-02-21T21:11:00;10.50;;;5.03;;
21251;SDS011;10784;50.578;17.878;2024-02-21T21:13:33;20.02;;;6.50;;
21251;SDS011;10784;50.578;17.878;2024-02-21T21:16:07;16.58;;;5.93;;
21251;SDS011;10784;50.578;17.878;2024-02-21T21:18:41;15.93;;;6.72;;
21251;SDS011;10784;50.578;17.878;2024-02-21T21:21:14;26.90;;;8.98;;
21251;SDS011;10784;50.578;17.878;2024-02-21T21:23:47;37.17;;;9.40;;
21251;SDS011;10784;50.578;17.878;2024-02-21T21:26:20;38.65;;;10.73;;
21251;SDS011;10784;50.578;17.878;2024-02-21T21:28:52;77.28;;;17.35;;
21251;SDS011;10784;50.578;17.878;2024-02-21T21:31:30;53.03;;;13.45;;
21251;SDS011;10784;50.578;17.878;2024-02-21T21:34:03;51.70;;;11.93;;
21251;SDS011;10784;50.578;17.878;2024-02-21T21:36:36;52.65;;;12.60;;
21251;SDS011;10784;50.578;17.878;2024-02-21T21:39:09;50.47;;;12.35;;
21251;SDS011;10784;50.578;17.878;2024-02-21T21:41:43;34.75;;;11.02;;
21251;SDS011;10784;50.578;17.878;2024-02-21T21:44:15;31.50;;;8.95;;
21251;SDS011;10784;50.578;17.878;2024-02-21T21:46:49;31.20;;;9.05;;
21251;SDS011;10784;50.578;17.878;2024-02-21T21:49:22;38.53;;;11.32;;
21251;SDS011;10784;50.578;17.878;2024-02-21T21:51:55;27.52;;;10.70;;
21251;SDS011;10784;50.578;17.878;2024-02-21T21:54:28;17.50;;;7.28;;
21251;SDS011;10784;50.578;17.878;2024-02-21T21:57:01;15.82;;;6.07;;
21251;SDS011;10784;50.578;17.878;2024-02-21T21:59:33;16.60;;;5.53;;
21251;SDS011;10784;50.578;17.878;2024-02-21T22:02:07;18.95;;;7.47;;
21251;SDS011;10784;50.578;17.878;2024-02-21T22:04:39;20.20;;;6.70;;
21251;SDS011;10784;50.578;17.878;2024-02-21T22:07:12;11.45;;;4.15;;
21251;SDS011;10784;50.578;17.878;2024-02-21T22:09:46;17.88;;;6.03;;
21251;SDS011;10784;50.578;17.878;2024-02-21T22:12:20;16.92;;;6.05;;
21251;SDS011;10784;50.578;17.878;2024-02-21T22:14:53;7.65;;;3.90;;
21251;SDS011;10784;50.578;17.878;2024-02-21T22:17:26;7.35;;;3.72;;
21251;SDS011;10784;50.578;17.878;2024-02-21T22:19:59;4.38;;;2.92;;
21251;SDS011;10784;50.578;17.878;2024-02-21T22:22:32;16.63;;;5.03;;
21251;SDS011;10784;50.578;17.878;2024-02-21T22:25:05;6.95;;;4.20;;
21251;SDS011;10784;50.578;17.878;2024-02-21T22:27:41;21.05;;;8.95;;
21251;SDS011;10784;50.578;17.878;2024-02-21T22:30:15;18.23;;;5.57;;
21251;SDS011;10784;50.578;17.878;2024-02-21T22:32:48;26.77;;;8.73;;
21251;SDS011;10784;50.578;17.878;2024-02-21T22:35:21;14.55;;;6.07;;
21251;SDS011;10784;50.578;17.878;2024-02-21T22:37:54;12.25;;;5.22;;
21251;SDS011;10784;50.578;17.878;2024-02-21T22:40:27;10.85;;;4.65;;
21251;SDS011;10784;50.578;17.878;2024-02-21T22:43:01;9.95;;;5.30;;
21251;SDS011;10784;50.578;17.878;2024-02-21T22:45:34;9.82;;;5.45;;
21251;SDS011;10784;50.578;17.878;2024-02-21T22:48:07;11.65;;;4.30;;
21251;SDS011;10784;50.578;17.878;2024-02-21T22:50:40;13.05;;;4.07;;
21251;SDS011;10784;50.578;17.878;2024-02-21T22:53:13;5.78;;;3.15;;
21251;SDS011;10784;50.578;17.878;2024-02-21T22:55:46;6.75;;;3.53;;
21251;SDS011;10784;50.578;17.878;2024-02-21T22:58:20;5.13;;;3.13;;
21251;SDS011;10784;50.578;17.878;2024-02-21T23:00:55;6.28;;;3.13;;
21251;SDS011;10784;50.578;17.878;2024-02-21T23:03:29;6.85;;;3.85;;
21251;SDS011;10784;50.578;17.878;2024-02-21T23:06:02;8.38;;;3.67;;
21251;SDS011;10784;50.578;17.878;2024-02-21T23:08:35;5.93;;;3.20;;
21251;SDS011;10784;50.578;17.878;2024-02-21T23:11:10;7.57;;;3.40;;
21251;SDS011;10784;50.578;17.878;2024-02-21T23:13:45;4.03;;;2.35;;
21251;SDS011;10784;50.578;17.878;2024-02-21T23:16:18;4.07;;;2.38;;
21251;SDS011;10784;50.578;17.878;2024-02-21T23:18:51;17.73;;;2.92;;
21251;SDS011;10784;50.578;17.878;2024-02-21T23:21:24;9.30;;;3.53;;
21251;SDS011;10784;50.578;17.878;2024-02-21T23:23:57;11.70;;;3.35;;
21251;SDS011;10784;50.578;17.878;2024-02-21T23:26:30;6.28;;;3.40;;
21251;SDS011;10784;50.578;17.878;2024-02-21T23:29:04;15.13;;;4.25;;
21251;SDS011;10784;50.578;17.878;2024-02-21T23:31:39;8.57;;;3.30;;
21251;SDS011;10784;50.578;17.878;2024-02-21T23:34:13;13.23;;;4.95;;
21251;SDS011;10784;50.578;17.878;2024-02-21T23:36:46;6.22;;;3.63;;
21251;SDS011;10784;50.578;17.878;2024-02-21T23:39:19;5.10;;;3.35;;
21251;SDS011;10784;50.578;17.878;2024-02-21T23:41:52;5.07;;;3.25;;
21251;SDS011;10784;50.578;17.878;2024-02-21T23:44:25;17.00;;;4.10;;
21251;SDS011;10784;50.578;17.878;2024-02-21T23:46:58;4.00;;;2.63;;
21251;SDS011;10784;50.578;17.878;2024-02-21T23:49:31;7.65;;;2.58;;
21251;SDS011;10784;50.578;17.878;2024-02-21T23:52:04;8.68;;;3.20;;
21251;SDS011;10784;50.578;17.878;2024-02-21T23:54:37;4.30;;;3.17;;
21251;SDS011;10784;50.578;17.878;2024-02-21T23:57:10;10.05;;;3.50;;
21251;SDS011;10784;50.578;17.878;2024-02-21T23:59:43;12.35;;;3.53;;
